sensor_id;sensor_type;location;lat;lon;timestamp;P1;durP1;ratioP1;P2;durP2;ratioP2
23722;SDS011;12042;52.136;5.584;2022-07-10T06:38:20;6.72;;;1.70;;
23722;SDS011;12042;52.136;5.584;2022-07-10T06:40:46;8.05;;;1.77;;
23722;SDS011;12042;52.136;5.584;2022-07-10T06:43:12;5.53;;;1.60;;
23722;SDS011;12042;52.136;5.584;2022-07-10T06:45:38;8.65;;;1.90;;
23722;SDS011;12042;52.136;5.584;2022-07-10T06:48:04;6.43;;;1.67;;
23722;SDS011;12042;52.136;5.584;2022-07-10T06:50:30;4.68;;;1.88;;
23722;SDS011;12042;52.136;5.584;2022-07-10T06:52:57;4.95;;;1.88;;
23722;SDS011;12042;52.136;5.584;2022-07-10T06:55:23;5.38;;;1.65;;
23722;SDS011;12042;52.136;5.584;2022-07-10T06:57:50;7.90;;;1.70;;
23722;SDS011;12042;52.136;5.584;2022-07-10T07:00:15;8.70;;;1.75;;
23722;SDS011;12042;52.136;5.584;2022-07-10T07:02:41;7.97;;;1.80;;
23722;SDS011;12042;52.136;5.584;2022-07-10T07:05:07;7.85;;;1.50;;
23722;SDS011;12042;52.136;5.584;2022-07-10T07:07:33;7.30;;;1.70;;
23722;SDS011;12042;52.136;5.584;2022-07-10T07:09:59;6.50;;;1.77;;
23722;SDS011;12042;52.136;5.584;2022-07-10T07:12:25;6.72;;;1.60;;
23722;SDS011;12042;52.136;5.584;2022-07-10T07:14:51;6.85;;;2.00;;
23722;SDS011;12042;52.136;5.584;2022-07-10T07:17:16;4.25;;;1.83;;
23722;SDS011;12042;52.136;5.584;2022-07-10T07:19:50;7.05;;;1.63;;
23722;SDS011;12042;52.136;5.584;2022-07-10T07:22:35;5.93;;;1.60;;
23722;SDS011;12042;52.136;5.584;2022-07-10T07:25:20;7.28;;;1.73;;
23722;SDS011;12042;52.136;5.584;2022-07-10T07:27:48;7.50;;;1.67;;
23722;SDS011;12042;52.136;5.584;2022-07-10T07:30:14;9.02;;;1.90;;
23722;SDS011;12042;52.136;5.584;2022-07-10T07:32:40;7.10;;;1.92;;
23722;SDS011;12042;52.136;5.584;2022-07-10T07:35:07;7.45;;;1.65;;
23722;SDS011;12042;52.136;5.584;2022-07-10T07:37:43;8.68;;;2.05;;
23722;SDS011;12042;52.136;5.584;2022-07-10T07:40:16;5.65;;;1.50;;
23722;SDS011;12042;52.136;5.584;2022-07-10T07:42:48;5.53;;;1.50;;
23722;SDS011;12042;52.136;5.584;2022-07-10T07:45:15;5.35;;;1.60;;
23722;SDS011;12042;52.136;5.584;2022-07-10T07:47:45;2.92;;;1.40;;
23722;SDS011;12042;52.136;5.584;2022-07-10T07:50:12;4.85;;;1.48;;
23722;SDS011;12042;52.136;5.584;2022-07-10T07:52:42;6.85;;;1.63;;
23722;SDS011;12042;52.136;5.584;2022-07-10T07:55:09;3.92;;;1.38;;
23722;SDS011;12042;52.136;5.584;2022-07-10T07:57:35;6.88;;;1.30;;
23722;SDS011;12042;52.136;5.584;2022-07-10T08:00:02;6.90;;;1.50;;
23722;SDS011;12042;52.136;5.584;2022-07-10T08:02:29;4.10;;;1.35;;
23722;SDS011;12042;52.136;5.584;2022-07-10T08:04:54;4.22;;;1.40;;
23722;SDS011;12042;52.136;5.584;2022-07-10T08:07:20;2.42;;;1.30;;
23722;SDS011;12042;52.136;5.584;2022-07-10T08:09:45;4.70;;;1.60;;
23722;SDS011;12042;52.136;5.584;2022-07-10T08:12:11;10.82;;;1.77;;
23722;SDS011;12042;52.136;5.584;2022-07-10T08:14:36;5.88;;;1.40;;
23722;SDS011;12042;52.136;5.584;2022-07-10T08:17:03;3.67;;;1.40;;
23722;SDS011;12042;52.136;5.584;2022-07-10T08:19:29;2.70;;;1.35;;
23722;SDS011;12042;52.136;5.584;2022-07-10T08:21:54;2.50;;;1.38;;
23722;SDS011;12042;52.136;5.584;2022-07-10T08:24:20;4.70;;;1.50;;
23722;SDS011;12042;52.136;5.584;2022-07-10T08:26:45;6.18;;;1.40;;
23722;SDS011;12042;52.136;5.584;2022-07-10T08:29:11;5.03;;;1.60;;
23722;SDS011;12042;52.136;5.584;2022-07-10T08:31:36;5.30;;;1.38;;
23722;SDS011;12042;52.136;5.584;2022-07-10T08:34:02;2.75;;;1.50;;
23722;SDS011;12042;52.136;5.584;2022-07-10T08:36:28;5.80;;;1.50;;
23722;SDS011;12042;52.136;5.584;2022-07-10T08:38:53;3.70;;;1.50;;
23722;SDS011;12042;52.136;5.584;2022-07-10T08:41:22;4.32;;;1.42;;
23722;SDS011;12042;52.136;5.584;2022-07-10T08:43:50;3.40;;;1.30;;
23722;SDS011;12042;52.136;5.584;2022-07-10T08:46:16;2.58;;;1.20;;
23722;SDS011;12042;52.136;5.584;2022-07-10T08:48:46;1.90;;;1.30;;
23722;SDS011;12042;52.136;5.584;2022-07-10T08:51:15;2.95;;;1.13;;
23722;SDS011;12042;52.136;5.584;2022-07-10T08:53:48;5.20;;;1.40;;
23722;SDS011;12042;52.136;5.584;2022-07-10T08:56:15;2.78;;;1.15;;
23722;SDS011;12042;52.136;5.584;2022-07-10T08:58:41;3.72;;;1.30;;
23722;SDS011;12042;52.136;5.584;2022-07-10T09:01:07;2.70;;;1.30;;
23722;SDS011;12042;52.136;5.584;2022-07-10T09:03:33;3.85;;;1.30;;
23722;SDS011;12042;52.136;5.584;2022-07-10T09:05:58;3.00;;;1.15;;
23722;SDS011;12042;52.136;5.584;2022-07-10T09:08:25;4.57;;;1.23;;
23722;SDS011;12042;52.136;5.584;2022-07-10T09:11:12;3.70;;;1.08;;
23722;SDS011;12042;52.136;5.584;2022-07-10T09:13:48;3.30;;;1.20;;
23722;SDS011;12042;52.136;5.584;2022-07-10T09:16:36;4.18;;;1.25;;
23722;SDS011;12042;52.136;5.584;2022-07-10T09:19:17;1.80;;;1.20;;
23722;SDS011;12042;52.136;5.584;2022-07-10T09:21:43;2.88;;;1.20;;
23722;SDS011;12042;52.136;5.584;2022-07-10T09:24:10;6.10;;;1.52;;
23722;SDS011;12042;52.136;5.584;2022-07-10T09:26:36;2.72;;;1.23;;
23722;SDS011;12042;52.136;5.584;2022-07-10T09:29:09;2.35;;;1.48;;
23722;SDS011;12042;52.136;5.584;2022-07-10T09:39:57;3.70;;;1.20;;
23722;SDS011;12042;52.136;5.584;2022-07-10T09:45:35;2.20;;;1.33;;
23722;SDS011;12042;52.136;5.584;2022-07-10T09:47:57;4.57;;;1.20;;
23722;SDS011;12042;52.136;5.584;2022-07-10T09:53:02;2.05;;;1.05;;
23722;SDS011;12042;52.136;5.584;2022-07-10T09:55:34;6.00;;;1.20;;
23722;SDS011;12042;52.136;5.584;2022-07-10T09:58:02;3.30;;;1.30;;
23722;SDS011;12042;52.136;5.584;2022-07-10T10:00:30;4.88;;;1.27;;
23722;SDS011;12042;52.136;5.584;2022-07-10T10:02:57;2.45;;;1.10;;
23722;SDS011;12042;52.136;5.584;2022-07-10T10:05:37;2.17;;;1.08;;
23722;SDS011;12042;52.136;5.584;2022-07-10T10:10:48;2.38;;;1.10;;
23722;SDS011;12042;52.136;5.584;2022-07-10T10:13:15;2.28;;;1.08;;
23722;SDS011;12042;52.136;5.584;2022-07-10T10:15:43;4.72;;;1.00;;
23722;SDS011;12042;52.136;5.584;2022-07-10T10:18:10;2.90;;;1.10;;
23722;SDS011;12042;52.136;5.584;2022-07-10T10:20:37;2.75;;;1.13;;
23722;SDS011;12042;52.136;5.584;2022-07-10T10:23:10;3.58;;;1.00;;
23722;SDS011;12042;52.136;5.584;2022-07-10T10:25:42;3.17;;;1.15;;
23722;SDS011;12042;52.136;5.584;2022-07-10T10:28:09;3.40;;;1.15;;
23722;SDS011;12042;52.136;5.584;2022-07-10T10:30:37;1.05;;;0.90;;
23722;SDS011;12042;52.136;5.584;2022-07-10T10:33:32;1.38;;;1.13;;
23722;SDS011;12042;52.136;5.584;2022-07-10T10:35:55;1.83;;;1.10;;
23722;SDS011;12042;52.136;5.584;2022-07-10T10:38:21;1.67;;;1.20;;
23722;SDS011;12042;52.136;5.584;2022-07-10T10:40:47;3.22;;;0.98;;
23722;SDS011;12042;52.136;5.584;2022-07-10T10:43:19;4.50;;;1.10;;
23722;SDS011;12042;52.136;5.584;2022-07-10T10:45:47;1.92;;;1.10;;
23722;SDS011;12042;52.136;5.584;2022-07-10T10:48:14;1.75;;;1.10;;
23722;SDS011;12042;52.136;5.584;2022-07-10T10:53:15;3.97;;;1.40;;
23722;SDS011;12042;52.136;5.584;2022-07-10T10:56:20;3.15;;;1.20;;
23722;SDS011;12042;52.136;5.584;2022-07-10T10:58:28;3.50;;;1.50;;
23722;SDS011;12042;52.136;5.584;2022-07-10T11:01:04;1.80;;;0.90;;
23722;SDS011;12042;52.136;5.584;2022-07-10T11:06:39;1.55;;;1.20;;
23722;SDS011;12042;52.136;5.584;2022-07-10T11:14:34;2.70;;;1.45;;
23722;SDS011;12042;52.136;5.584;2022-07-10T11:17:09;3.10;;;1.20;;
23722;SDS011;12042;52.136;5.584;2022-07-10T11:19:35;1.83;;;1.00;;
23722;SDS011;12042;52.136;5.584;2022-07-10T11:24:45;4.20;;;1.20;;
23722;SDS011;12042;52.136;5.584;2022-07-10T11:27:24;3.22;;;1.20;;
23722;SDS011;12042;52.136;5.584;2022-07-10T11:30:10;2.38;;;1.13;;
23722;SDS011;12042;52.136;5.584;2022-07-10T11:32:38;1.95;;;1.20;;
23722;SDS011;12042;52.136;5.584;2022-07-10T11:35:06;3.58;;;1.15;;
23722;SDS011;12042;52.136;5.584;2022-07-10T11:37:35;2.78;;;1.30;;
23722;SDS011;12042;52.136;5.584;2022-07-10T11:40:07;2.53;;;1.00;;
23722;SDS011;12042;52.136;5.584;2022-07-10T11:42:55;3.38;;;1.00;;
23722;SDS011;12042;52.136;5.584;2022-07-10T11:45:23;2.75;;;1.00;;
23722;SDS011;12042;52.136;5.584;2022-07-10T11:47:53;2.80;;;1.00;;
23722;SDS011;12042;52.136;5.584;2022-07-10T11:50:19;1.17;;;0.90;;
23722;SDS011;12042;52.136;5.584;2022-07-10T11:52:45;5.15;;;1.02;;
23722;SDS011;12042;52.136;5.584;2022-07-10T11:55:15;2.00;;;0.90;;
23722;SDS011;12042;52.136;5.584;2022-07-10T11:57:41;3.92;;;1.20;;
23722;SDS011;12042;52.136;5.584;2022-07-10T12:00:30;3.17;;;0.93;;
23722;SDS011;12042;52.136;5.584;2022-07-10T12:02:56;1.75;;;0.85;;
23722;SDS011;12042;52.136;5.584;2022-07-10T12:05:39;2.33;;;0.90;;
23722;SDS011;12042;52.136;5.584;2022-07-10T12:08:06;2.15;;;1.23;;
23722;SDS011;12042;52.136;5.584;2022-07-10T12:10:33;3.67;;;1.20;;
23722;SDS011;12042;52.136;5.584;2022-07-10T12:13:03;2.80;;;1.40;;
23722;SDS011;12042;52.136;5.584;2022-07-10T12:15:35;1.58;;;1.10;;
23722;SDS011;12042;52.136;5.584;2022-07-10T12:18:06;2.22;;;0.98;;
23722;SDS011;12042;52.136;5.584;2022-07-10T12:20:33;2.25;;;1.20;;
23722;SDS011;12042;52.136;5.584;2022-07-10T12:23:00;2.83;;;1.30;;
23722;SDS011;12042;52.136;5.584;2022-07-10T12:25:26;1.73;;;1.25;;
23722;SDS011;12042;52.136;5.584;2022-07-10T12:27:55;3.60;;;1.10;;
23722;SDS011;12042;52.136;5.584;2022-07-10T12:30:23;2.13;;;1.30;;
23722;SDS011;12042;52.136;5.584;2022-07-10T12:33:06;3.25;;;1.23;;
23722;SDS011;12042;52.136;5.584;2022-07-10T12:35:32;2.72;;;1.10;;
23722;SDS011;12042;52.136;5.584;2022-07-10T12:38:19;1.08;;;0.90;;
23722;SDS011;12042;52.136;5.584;2022-07-10T12:40:46;1.40;;;1.10;;
23722;SDS011;12042;52.136;5.584;2022-07-10T12:43:12;4.07;;;1.40;;
23722;SDS011;12042;52.136;5.584;2022-07-10T12:46:07;2.15;;;1.15;;
23722;SDS011;12042;52.136;5.584;2022-07-10T12:49:01;2.13;;;0.80;;
23722;SDS011;12042;52.136;5.584;2022-07-10T12:51:34;1.73;;;1.13;;
23722;SDS011;12042;52.136;5.584;2022-07-10T12:56:58;1.17;;;1.02;;
23722;SDS011;12042;52.136;5.584;2022-07-10T12:59:25;1.70;;;1.02;;
23722;SDS011;12042;52.136;5.584;2022-07-10T13:01:52;0.80;;;0.80;;
23722;SDS011;12042;52.136;5.584;2022-07-10T13:04:25;2.38;;;1.23;;
23722;SDS011;12042;52.136;5.584;2022-07-10T13:06:52;3.17;;;0.95;;
23722;SDS011;12042;52.136;5.584;2022-07-10T13:09:19;1.77;;;0.98;;
23722;SDS011;12042;52.136;5.584;2022-07-10T13:11:49;2.10;;;1.00;;
23722;SDS011;12042;52.136;5.584;2022-07-10T13:14:19;2.40;;;0.90;;
23722;SDS011;12042;52.136;5.584;2022-07-10T13:16:45;1.05;;;0.93;;
23722;SDS011;12042;52.136;5.584;2022-07-10T13:19:10;2.63;;;0.90;;
23722;SDS011;12042;52.136;5.584;2022-07-10T13:21:36;0.93;;;0.65;;
23722;SDS011;12042;52.136;5.584;2022-07-10T13:24:02;1.48;;;0.90;;
23722;SDS011;12042;52.136;5.584;2022-07-10T13:26:29;2.75;;;1.10;;
23722;SDS011;12042;52.136;5.584;2022-07-10T13:28:55;1.10;;;0.90;;
23722;SDS011;12042;52.136;5.584;2022-07-10T13:31:22;1.73;;;0.95;;
23722;SDS011;12042;52.136;5.584;2022-07-10T13:33:47;2.20;;;0.90;;
23722;SDS011;12042;52.136;5.584;2022-07-10T13:36:13;1.85;;;1.00;;
23722;SDS011;12042;52.136;5.584;2022-07-10T13:38:39;2.30;;;0.85;;
23722;SDS011;12042;52.136;5.584;2022-07-10T13:41:04;1.15;;;0.80;;
23722;SDS011;12042;52.136;5.584;2022-07-10T13:43:30;2.97;;;1.00;;
23722;SDS011;12042;52.136;5.584;2022-07-10T13:45:57;1.85;;;1.10;;
23722;SDS011;12042;52.136;5.584;2022-07-10T13:48:23;2.70;;;1.10;;
23722;SDS011;12042;52.136;5.584;2022-07-10T13:50:49;3.10;;;1.40;;
23722;SDS011;12042;52.136;5.584;2022-07-10T13:53:18;1.52;;;1.00;;
23722;SDS011;12042;52.136;5.584;2022-07-10T13:55:44;2.03;;;1.10;;
23722;SDS011;12042;52.136;5.584;2022-07-10T13:58:10;1.10;;;1.00;;
23722;SDS011;12042;52.136;5.584;2022-07-10T14:00:37;2.45;;;1.10;;
23722;SDS011;12042;52.136;5.584;2022-07-10T14:03:03;1.75;;;1.17;;
23722;SDS011;12042;52.136;5.584;2022-07-10T14:05:29;1.48;;;1.05;;
23722;SDS011;12042;52.136;5.584;2022-07-10T14:07:55;1.00;;;1.00;;
23722;SDS011;12042;52.136;5.584;2022-07-10T14:10:21;4.10;;;1.30;;
23722;SDS011;12042;52.136;5.584;2022-07-10T14:12:47;3.05;;;1.13;;
23722;SDS011;12042;52.136;5.584;2022-07-10T14:15:12;2.22;;;1.30;;
23722;SDS011;12042;52.136;5.584;2022-07-10T14:17:38;2.72;;;1.10;;
23722;SDS011;12042;52.136;5.584;2022-07-10T14:20:04;2.53;;;1.33;;
23722;SDS011;12042;52.136;5.584;2022-07-10T14:22:30;2.67;;;1.20;;
23722;SDS011;12042;52.136;5.584;2022-07-10T14:24:56;2.92;;;1.13;;
23722;SDS011;12042;52.136;5.584;2022-07-10T14:27:22;3.75;;;1.10;;
23722;SDS011;12042;52.136;5.584;2022-07-10T14:29:52;2.35;;;1.20;;
23722;SDS011;12042;52.136;5.584;2022-07-10T14:32:18;1.52;;;1.30;;
23722;SDS011;12042;52.136;5.584;2022-07-10T14:34:44;2.05;;;1.20;;
23722;SDS011;12042;52.136;5.584;2022-07-10T14:37:09;2.63;;;0.90;;
23722;SDS011;12042;52.136;5.584;2022-07-10T14:39:35;1.88;;;1.00;;
23722;SDS011;12042;52.136;5.584;2022-07-10T14:42:01;2.90;;;1.35;;
23722;SDS011;12042;52.136;5.584;2022-07-10T14:44:29;2.97;;;1.50;;
23722;SDS011;12042;52.136;5.584;2022-07-10T14:46:55;1.27;;;1.10;;
23722;SDS011;12042;52.136;5.584;2022-07-10T14:49:21;1.17;;;1.08;;
23722;SDS011;12042;52.136;5.584;2022-07-10T14:51:46;1.77;;;1.30;;
23722;SDS011;12042;52.136;5.584;2022-07-10T14:54:12;3.38;;;1.83;;
23722;SDS011;12042;52.136;5.584;2022-07-10T14:56:37;3.78;;;1.40;;
23722;SDS011;12042;52.136;5.584;2022-07-10T14:59:03;4.13;;;1.35;;
23722;SDS011;12042;52.136;5.584;2022-07-10T15:01:29;5.20;;;1.58;;
23722;SDS011;12042;52.136;5.584;2022-07-10T15:03:55;2.72;;;1.58;;
23722;SDS011;12042;52.136;5.584;2022-07-10T15:06:22;1.48;;;1.13;;
23722;SDS011;12042;52.136;5.584;2022-07-10T15:08:48;3.13;;;1.67;;
23722;SDS011;12042;52.136;5.584;2022-07-10T15:11:16;2.28;;;1.10;;
23722;SDS011;12042;52.136;5.584;2022-07-10T15:13:42;2.75;;;1.50;;
23722;SDS011;12042;52.136;5.584;2022-07-10T15:16:07;2.45;;;1.35;;
23722;SDS011;12042;52.136;5.584;2022-07-10T15:18:33;2.50;;;1.40;;
23722;SDS011;12042;52.136;5.584;2022-07-10T15:20:59;1.35;;;1.02;;
23722;SDS011;12042;52.136;5.584;2022-07-10T15:23:24;3.08;;;1.55;;
23722;SDS011;12042;52.136;5.584;2022-07-10T15:25:52;1.85;;;1.20;;
23722;SDS011;12042;52.136;5.584;2022-07-10T15:28:18;3.05;;;1.30;;
23722;SDS011;12042;52.136;5.584;2022-07-10T15:30:44;1.42;;;1.10;;
23722;SDS011;12042;52.136;5.584;2022-07-10T15:33:10;2.03;;;1.45;;
23722;SDS011;12042;52.136;5.584;2022-07-10T15:35:35;10.80;;;1.52;;
23722;SDS011;12042;52.136;5.584;2022-07-10T15:38:01;2.42;;;1.10;;
23722;SDS011;12042;52.136;5.584;2022-07-10T15:40:27;3.33;;;1.40;;
23722;SDS011;12042;52.136;5.584;2022-07-10T15:42:54;3.55;;;1.30;;
23722;SDS011;12042;52.136;5.584;2022-07-10T15:45:21;2.95;;;1.50;;
23722;SDS011;12042;52.136;5.584;2022-07-10T15:47:47;2.58;;;1.50;;
23722;SDS011;12042;52.136;5.584;2022-07-10T15:50:14;2.08;;;1.52;;
23722;SDS011;12042;52.136;5.584;2022-07-10T15:52:39;5.75;;;1.60;;
23722;SDS011;12042;52.136;5.584;2022-07-10T15:55:05;1.90;;;1.40;;
23722;SDS011;12042;52.136;5.584;2022-07-10T15:57:31;3.20;;;1.33;;
23722;SDS011;12042;52.136;5.584;2022-07-10T15:59:56;3.10;;;1.10;;
23722;SDS011;12042;52.136;5.584;2022-07-10T16:02:22;2.05;;;1.90;;
23722;SDS011;12042;52.136;5.584;2022-07-10T16:04:48;2.75;;;1.50;;
23722;SDS011;12042;52.136;5.584;2022-07-10T16:07:13;1.90;;;1.80;;
23722;SDS011;12042;52.136;5.584;2022-07-10T16:09:39;2.03;;;1.60;;
23722;SDS011;12042;52.136;5.584;2022-07-10T16:12:05;2.65;;;1.35;;
23722;SDS011;12042;52.136;5.584;2022-07-10T16:14:31;1.90;;;1.40;;
23722;SDS011;12042;52.136;5.584;2022-07-10T16:16:57;2.05;;;1.60;;
23722;SDS011;12042;52.136;5.584;2022-07-10T16:19:22;3.33;;;1.92;;
23722;SDS011;12042;52.136;5.584;2022-07-10T16:21:48;2.65;;;2.15;;
23722;SDS011;12042;52.136;5.584;2022-07-10T16:24:13;2.63;;;2.13;;
23722;SDS011;12042;52.136;5.584;2022-07-10T16:26:39;3.90;;;2.60;;
23722;SDS011;12042;52.136;5.584;2022-07-10T16:29:05;5.03;;;1.90;;
23722;SDS011;12042;52.136;5.584;2022-07-10T16:31:31;1.80;;;1.50;;
23722;SDS011;12042;52.136;5.584;2022-07-10T16:33:58;2.75;;;1.80;;
23722;SDS011;12042;52.136;5.584;2022-07-10T16:36:26;3.00;;;1.17;;
23722;SDS011;12042;52.136;5.584;2022-07-10T16:38:52;2.45;;;1.35;;
23722;SDS011;12042;52.136;5.584;2022-07-10T16:41:17;2.88;;;1.50;;
23722;SDS011;12042;52.136;5.584;2022-07-10T16:43:43;2.03;;;1.63;;
23722;SDS011;12042;52.136;5.584;2022-07-10T16:46:09;3.92;;;1.83;;
23722;SDS011;12042;52.136;5.584;2022-07-10T16:48:35;4.65;;;1.63;;
23722;SDS011;12042;52.136;5.584;2022-07-10T16:51:01;3.70;;;2.30;;
23722;SDS011;12042;52.136;5.584;2022-07-10T16:53:27;5.25;;;1.90;;
23722;SDS011;12042;52.136;5.584;2022-07-10T16:55:54;3.25;;;1.90;;
23722;SDS011;12042;52.136;5.584;2022-07-10T16:58:20;1.77;;;1.50;;
23722;SDS011;12042;52.136;5.584;2022-07-10T17:00:46;1.70;;;1.60;;
23722;SDS011;12042;52.136;5.584;2022-07-10T17:03:12;1.73;;;1.40;;
23722;SDS011;12042;52.136;5.584;2022-07-10T17:05:38;2.55;;;1.60;;
23722;SDS011;12042;52.136;5.584;2022-07-10T17:08:04;2.60;;;1.60;;
23722;SDS011;12042;52.136;5.584;2022-07-10T17:10:33;2.47;;;1.80;;
23722;SDS011;12042;52.136;5.584;2022-07-10T17:12:58;2.22;;;1.40;;
23722;SDS011;12042;52.136;5.584;2022-07-10T17:15:24;3.45;;;2.05;;
23722;SDS011;12042;52.136;5.584;2022-07-10T17:17:50;3.53;;;2.75;;
23722;SDS011;12042;52.136;5.584;2022-07-10T17:20:16;4.50;;;2.10;;
23722;SDS011;12042;52.136;5.584;2022-07-10T17:22:41;4.43;;;1.88;;
23722;SDS011;12042;52.136;5.584;2022-07-10T17:25:10;3.83;;;1.60;;
23722;SDS011;12042;52.136;5.584;2022-07-10T17:27:36;3.83;;;1.90;;
23722;SDS011;12042;52.136;5.584;2022-07-10T17:30:02;3.45;;;1.77;;
23722;SDS011;12042;52.136;5.584;2022-07-10T17:32:29;3.70;;;1.45;;
23722;SDS011;12042;52.136;5.584;2022-07-10T17:34:54;1.92;;;1.70;;
23722;SDS011;12042;52.136;5.584;2022-07-10T17:37:20;2.38;;;1.63;;
23722;SDS011;12042;52.136;5.584;2022-07-10T17:39:45;2.33;;;2.05;;
23722;SDS011;12042;52.136;5.584;2022-07-10T17:42:11;3.05;;;1.90;;
23722;SDS011;12042;52.136;5.584;2022-07-10T17:44:36;2.97;;;2.10;;
23722;SDS011;12042;52.136;5.584;2022-07-10T17:47:02;2.00;;;1.80;;
23722;SDS011;12042;52.136;5.584;2022-07-10T17:49:28;3.05;;;1.50;;
23722;SDS011;12042;52.136;5.584;2022-07-10T17:51:56;3.08;;;1.35;;
23722;SDS011;12042;52.136;5.584;2022-07-10T17:54:26;1.67;;;1.52;;
23722;SDS011;12042;52.136;5.584;2022-07-10T17:56:51;1.92;;;1.60;;
23722;SDS011;12042;52.136;5.584;2022-07-10T17:59:17;3.88;;;1.95;;
23722;SDS011;12042;52.136;5.584;2022-07-10T18:01:43;1.70;;;1.58;;
23722;SDS011;12042;52.136;5.584;2022-07-10T18:04:08;5.47;;;2.05;;
23722;SDS011;12042;52.136;5.584;2022-07-10T18:06:34;1.63;;;1.40;;
23722;SDS011;12042;52.136;5.584;2022-07-10T18:09:00;2.75;;;1.55;;
23722;SDS011;12042;52.136;5.584;2022-07-10T18:11:26;3.92;;;2.05;;
23722;SDS011;12042;52.136;5.584;2022-07-10T18:13:51;2.42;;;1.40;;
23722;SDS011;12042;52.136;5.584;2022-07-10T18:16:18;2.72;;;1.88;;
23722;SDS011;12042;52.136;5.584;2022-07-10T18:18:48;2.75;;;1.70;;
23722;SDS011;12042;52.136;5.584;2022-07-10T18:21:16;2.75;;;1.80;;
23722;SDS011;12042;52.136;5.584;2022-07-10T18:23:42;3.70;;;1.88;;
23722;SDS011;12042;52.136;5.584;2022-07-10T18:26:09;3.70;;;1.80;;
23722;SDS011;12042;52.136;5.584;2022-07-10T18:28:35;2.63;;;1.67;;
23722;SDS011;12042;52.136;5.584;2022-07-10T18:31:03;2.55;;;1.70;;
23722;SDS011;12042;52.136;5.584;2022-07-10T18:33:30;4.00;;;1.70;;
23722;SDS011;12042;52.136;5.584;2022-07-10T18:36:14;3.50;;;2.20;;
23722;SDS011;12042;52.136;5.584;2022-07-10T18:38:39;2.97;;;2.08;;
23722;SDS011;12042;52.136;5.584;2022-07-10T18:41:05;3.80;;;1.98;;
23722;SDS011;12042;52.136;5.584;2022-07-10T18:43:33;2.70;;;1.80;;
23722;SDS011;12042;52.136;5.584;2022-07-10T18:45:59;1.80;;;1.70;;
23722;SDS011;12042;52.136;5.584;2022-07-10T18:48:26;4.80;;;2.20;;
23722;SDS011;12042;52.136;5.584;2022-07-10T18:50:53;3.88;;;1.80;;
23722;SDS011;12042;52.136;5.584;2022-07-10T18:53:19;2.85;;;2.10;;
23722;SDS011;12042;52.136;5.584;2022-07-10T18:55:45;4.47;;;2.30;;
23722;SDS011;12042;52.136;5.584;2022-07-10T18:58:11;2.60;;;1.55;;
23722;SDS011;12042;52.136;5.584;2022-07-10T19:00:37;4.45;;;2.20;;
23722;SDS011;12042;52.136;5.584;2022-07-10T19:03:03;3.58;;;1.88;;
23722;SDS011;12042;52.136;5.584;2022-07-10T19:05:29;4.05;;;1.63;;
23722;SDS011;12042;52.136;5.584;2022-07-10T19:07:54;5.50;;;2.00;;
23722;SDS011;12042;52.136;5.584;2022-07-10T19:10:20;3.55;;;2.00;;
23722;SDS011;12042;52.136;5.584;2022-07-10T19:12:46;4.78;;;2.53;;
23722;SDS011;12042;52.136;5.584;2022-07-10T19:15:11;3.97;;;2.17;;
23722;SDS011;12042;52.136;5.584;2022-07-10T19:17:37;3.75;;;2.20;;
23722;SDS011;12042;52.136;5.584;2022-07-10T19:20:03;2.25;;;2.05;;
23722;SDS011;12042;52.136;5.584;2022-07-10T19:22:31;6.00;;;2.55;;
23722;SDS011;12042;52.136;5.584;2022-07-10T19:24:56;5.45;;;2.45;;
23722;SDS011;12042;52.136;5.584;2022-07-10T19:27:22;3.05;;;2.30;;
23722;SDS011;12042;52.136;5.584;2022-07-10T19:29:48;4.72;;;2.38;;
23722;SDS011;12042;52.136;5.584;2022-07-10T19:32:13;4.80;;;2.33;;
23722;SDS011;12042;52.136;5.584;2022-07-10T19:34:39;5.68;;;2.63;;
23722;SDS011;12042;52.136;5.584;2022-07-10T19:37:05;3.05;;;2.20;;
23722;SDS011;12042;52.136;5.584;2022-07-10T19:39:31;4.93;;;2.50;;
23722;SDS011;12042;52.136;5.584;2022-07-10T19:41:59;6.28;;;2.60;;
23722;SDS011;12042;52.136;5.584;2022-07-10T19:44:25;5.32;;;2.25;;
23722;SDS011;12042;52.136;5.584;2022-07-10T19:46:51;7.65;;;2.83;;
23722;SDS011;12042;52.136;5.584;2022-07-10T19:49:18;7.72;;;2.90;;
23722;SDS011;12042;52.136;5.584;2022-07-10T19:51:44;4.97;;;2.92;;
23722;SDS011;12042;52.136;5.584;2022-07-10T19:54:09;6.28;;;2.70;;
23722;SDS011;12042;52.136;5.584;2022-07-10T19:56:35;5.03;;;2.88;;
23722;SDS011;12042;52.136;5.584;2022-07-10T19:59:01;7.28;;;2.78;;
23722;SDS011;12042;52.136;5.584;2022-07-10T20:01:26;4.95;;;2.92;;
23722;SDS011;12042;52.136;5.584;2022-07-10T20:03:52;6.00;;;3.00;;
23722;SDS011;12042;52.136;5.584;2022-07-10T20:06:18;4.75;;;2.78;;
23722;SDS011;12042;52.136;5.584;2022-07-10T20:08:43;7.35;;;2.90;;
23722;SDS011;12042;52.136;5.584;2022-07-10T20:11:12;5.47;;;2.92;;
23722;SDS011;12042;52.136;5.584;2022-07-10T20:13:38;4.45;;;3.13;;
23722;SDS011;12042;52.136;5.584;2022-07-10T20:16:04;7.72;;;3.33;;
23722;SDS011;12042;52.136;5.584;2022-07-10T20:18:30;5.57;;;3.15;;
23722;SDS011;12042;52.136;5.584;2022-07-10T20:20:56;6.82;;;3.00;;
23722;SDS011;12042;52.136;5.584;2022-07-10T20:23:28;4.80;;;2.75;;
23722;SDS011;12042;52.136;5.584;2022-07-10T20:25:53;3.88;;;3.08;;
23722;SDS011;12042;52.136;5.584;2022-07-10T20:28:19;4.38;;;2.50;;
23722;SDS011;12042;52.136;5.584;2022-07-10T20:30:45;4.82;;;2.80;;
23722;SDS011;12042;52.136;5.584;2022-07-10T20:33:11;3.97;;;2.55;;
23722;SDS011;12042;52.136;5.584;2022-07-10T20:35:36;10.15;;;3.20;;
23722;SDS011;12042;52.136;5.584;2022-07-10T20:38:02;4.22;;;2.95;;
23722;SDS011;12042;52.136;5.584;2022-07-10T20:40:27;5.40;;;2.97;;
23722;SDS011;12042;52.136;5.584;2022-07-10T20:42:58;6.18;;;3.20;;
23722;SDS011;12042;52.136;5.584;2022-07-10T20:45:25;6.40;;;3.53;;
23722;SDS011;12042;52.136;5.584;2022-07-10T20:47:50;5.90;;;3.38;;
23722;SDS011;12042;52.136;5.584;2022-07-10T20:50:16;5.75;;;2.75;;
23722;SDS011;12042;52.136;5.584;2022-07-10T20:52:43;4.80;;;3.40;;
23722;SDS011;12042;52.136;5.584;2022-07-10T20:55:11;8.25;;;3.22;;
23722;SDS011;12042;52.136;5.584;2022-07-10T20:57:37;6.53;;;3.05;;
23722;SDS011;12042;52.136;5.584;2022-07-10T21:00:06;5.10;;;3.22;;
23722;SDS011;12042;52.136;5.584;2022-07-10T21:02:35;7.60;;;2.90;;
23722;SDS011;12042;52.136;5.584;2022-07-10T21:05:01;4.38;;;2.58;;
23722;SDS011;12042;52.136;5.584;2022-07-10T21:07:27;5.80;;;3.60;;
23722;SDS011;12042;52.136;5.584;2022-07-10T21:09:52;5.50;;;3.13;;
23722;SDS011;12042;52.136;5.584;2022-07-10T21:12:18;4.53;;;2.90;;
23722;SDS011;12042;52.136;5.584;2022-07-10T21:14:44;6.13;;;3.00;;
23722;SDS011;12042;52.136;5.584;2022-07-10T21:17:11;3.58;;;3.05;;
23722;SDS011;12042;52.136;5.584;2022-07-10T21:19:37;5.47;;;3.22;;
23722;SDS011;12042;52.136;5.584;2022-07-10T21:22:02;4.57;;;3.25;;
23722;SDS011;12042;52.136;5.584;2022-07-10T21:24:28;7.93;;;3.33;;
23722;SDS011;12042;52.136;5.584;2022-07-10T21:26:54;4.70;;;2.90;;
23722;SDS011;12042;52.136;5.584;2022-07-10T21:29:19;7.40;;;2.85;;
23722;SDS011;12042;52.136;5.584;2022-07-10T21:31:45;5.35;;;3.15;;
23722;SDS011;12042;52.136;5.584;2022-07-10T21:34:10;5.97;;;3.00;;
23722;SDS011;12042;52.136;5.584;2022-07-10T21:36:36;3.22;;;2.55;;
23722;SDS011;12042;52.136;5.584;2022-07-10T21:39:01;4.53;;;2.75;;
23722;SDS011;12042;52.136;5.584;2022-07-10T21:41:27;5.95;;;2.60;;
23722;SDS011;12042;52.136;5.584;2022-07-10T21:43:53;4.25;;;2.90;;
23722;SDS011;12042;52.136;5.584;2022-07-10T21:46:18;8.15;;;3.10;;
